createdAt,value
2022-12-03T00:00:30.194Z,70.11
2022-12-03T00:02:56.988Z,70.11
2022-12-03T00:05:23.695Z,70.17
2022-12-03T00:07:50.397Z,70.09
2022-12-03T00:10:17.218Z,70.53
2022-12-03T00:12:43.895Z,70.94
2022-12-03T00:15:11.726Z,70.98
2022-12-03T00:17:38.556Z,70.03
2022-12-03T00:20:17.228Z,70.65
2022-12-03T00:22:43.921Z,70.88
2022-12-03T00:25:10.603Z,70.56
2022-12-03T00:27:37.228Z,70.29
2022-12-03T00:30:05.797Z,70.58
2022-12-03T00:32:32.509Z,71.05
2022-12-03T00:34:59.134Z,70.94
2022-12-03T00:37:26.017Z,70.03
2022-12-03T00:39:52.646Z,70.48
2022-12-03T00:42:19.290Z,70.03
2022-12-03T00:44:46.002Z,70.37
2022-12-03T00:47:12.924Z,70.61
2022-12-03T00:49:39.665Z,70.41
2022-12-03T00:52:06.366Z,71.14
2022-12-03T00:54:33.158Z,70.46
2022-12-03T00:56:59.784Z,70.56
2022-12-03T00:59:26.535Z,70.58
2022-12-03T01:01:53.297Z,70.79
2022-12-03T01:04:20.154Z,70.63
2022-12-03T01:06:46.882Z,70.68
2022-12-03T01:09:13.948Z,70.88
2022-12-03T01:11:41.450Z,70.70
2022-12-03T01:14:12.178Z,71.17
2022-12-03T01:16:39.989Z,71.81
2022-12-03T01:19:08.473Z,70.97
2022-12-03T01:21:35.315Z,72.02
2022-12-03T01:24:02.022Z,71.36
2022-12-03T01:26:28.683Z,71.84
2022-12-03T01:28:55.463Z,71.44
2022-12-03T01:31:40.949Z,71.80
2022-12-03T01:34:08.010Z,72.35
2022-12-03T01:36:34.758Z,71.46
2022-12-03T01:39:03.447Z,71.51
2022-12-03T01:41:30.978Z,72.19
2022-12-03T01:43:59.046Z,71.75
2022-12-03T01:46:34.413Z,72.03
2022-12-03T01:49:01.123Z,72.35
2022-12-03T01:51:27.776Z,71.97
2022-12-03T01:53:54.381Z,71.83
2022-12-03T01:56:21.068Z,71.68
2022-12-03T01:58:48.361Z,72.12
2022-12-03T02:01:18.361Z,72.25
2022-12-03T02:03:46.211Z,72.41
2022-12-03T02:06:21.597Z,71.98
2022-12-03T02:08:49.461Z,72.21
2022-12-03T02:11:28.687Z,72.55
2022-12-03T02:14:01.695Z,72.56
2022-12-03T02:16:29.479Z,72.27
2022-12-03T02:18:58.037Z,71.48
2022-12-03T02:21:36.956Z,72.09
2022-12-03T02:24:15.730Z,72.07
2022-12-03T02:26:42.507Z,72.46
2022-12-03T02:29:09.227Z,72.63
2022-12-03T02:31:37.291Z,72.47
2022-12-03T02:34:08.129Z,72.42
2022-12-03T02:36:36.175Z,72.57
2022-12-03T02:39:03.558Z,72.69
2022-12-03T02:41:48.777Z,72.25
2022-12-03T02:44:15.510Z,73.22
2022-12-03T02:46:42.348Z,72.48
2022-12-03T02:49:09.097Z,72.88
2022-12-03T02:51:36.137Z,72.89
2022-12-03T02:54:03.641Z,72.65
2022-12-03T02:56:32.095Z,73.42
2022-12-03T02:59:03.050Z,72.95
2022-12-03T03:01:30.042Z,72.96
2022-12-03T03:03:57.982Z,73.13
2022-12-03T03:06:24.791Z,72.76
2022-12-03T03:08:51.919Z,73.03
2022-12-03T03:11:18.698Z,73.38
2022-12-03T03:13:45.594Z,73.75
2022-12-03T03:16:12.513Z,73.01
2022-12-03T03:18:39.457Z,72.36
2022-12-03T03:21:06.484Z,72.74
2022-12-03T03:23:33.779Z,72.81
2022-12-03T03:26:09.673Z,72.93
2022-12-03T03:28:39.689Z,72.66
2022-12-03T03:31:09.265Z,72.43
2022-12-03T03:33:39.469Z,72.98
2022-12-03T03:36:07.279Z,72.79
2022-12-03T03:38:34.500Z,73.08
2022-12-03T03:41:03.897Z,72.70
2022-12-03T03:43:33.283Z,72.74
2022-12-03T03:46:01.507Z,72.62
2022-12-03T03:48:28.357Z,73.01
2022-12-03T03:50:56.154Z,73.49
2022-12-03T03:53:23.494Z,72.84
2022-12-03T03:55:51.254Z,72.66
2022-12-03T03:58:17.993Z,73.22
2022-12-03T04:00:47.398Z,72.46
2022-12-03T04:03:14.174Z,73.16
2022-12-03T04:05:41.241Z,72.94
2022-12-03T04:08:08.091Z,72.42
2022-12-03T04:10:53.736Z,72.62
2022-12-03T04:13:20.507Z,72.50
2022-12-03T04:15:47.779Z,72.74
2022-12-03T04:18:34.032Z,72.82
2022-12-03T04:21:19.378Z,73.18
2022-12-03T04:23:46.070Z,72.72
2022-12-03T04:26:31.416Z,73.03
2022-12-03T04:28:58.162Z,72.98
2022-12-03T04:31:43.383Z,72.92
2022-12-03T04:34:28.739Z,73.39
2022-12-03T04:36:55.698Z,72.53
2022-12-03T04:39:22.574Z,72.76
2022-12-03T04:41:49.180Z,72.60
2022-12-03T04:44:36.255Z,72.86
2022-12-03T04:47:09.123Z,72.75
2022-12-03T04:49:38.827Z,72.93
2022-12-03T04:52:06.051Z,72.42
2022-12-03T04:54:33.366Z,73.06
2022-12-03T04:57:00.463Z,73.04
2022-12-03T04:59:27.130Z,72.87
2022-12-03T05:01:53.887Z,73.12
2022-12-03T05:04:20.699Z,72.91
2022-12-03T05:06:47.497Z,72.92
2022-12-03T05:09:14.481Z,72.51
2022-12-03T05:11:42.199Z,72.64
2022-12-03T05:14:09.974Z,73.37
2022-12-03T05:16:37.771Z,73.31
2022-12-03T05:19:07.107Z,73.08
2022-12-03T05:21:34.390Z,73.10
2022-12-03T05:24:01.082Z,73.33
2022-12-03T05:26:27.917Z,73.36
2022-12-03T05:28:54.653Z,72.77
2022-12-03T05:31:21.417Z,72.91
2022-12-03T05:33:48.262Z,73.12
2022-12-03T05:36:15.808Z,73.57
2022-12-03T05:38:42.506Z,73.33
2022-12-03T05:41:27.682Z,73.06
2022-12-03T05:43:54.545Z,73.24
2022-12-03T05:46:21.355Z,73.90
2022-12-03T05:48:48.128Z,73.94
2022-12-03T05:51:14.798Z,73.54
2022-12-03T05:53:41.560Z,73.44
2022-12-03T05:56:08.376Z,73.83
2022-12-03T05:58:35.162Z,73.64
2022-12-03T06:01:02.002Z,74.08
2022-12-03T06:03:28.816Z,73.31
2022-12-03T06:05:55.625Z,72.87
2022-12-03T06:08:22.320Z,73.60
2022-12-03T06:10:49.036Z,72.70
2022-12-03T06:13:16.510Z,73.04
2022-12-03T06:15:44.255Z,73.45
2022-12-03T06:18:11.762Z,73.46
2022-12-03T06:20:38.579Z,73.18
2022-12-03T06:23:05.496Z,73.26
2022-12-03T06:25:32.379Z,73.06
2022-12-03T06:27:59.338Z,73.38
2022-12-03T06:30:26.194Z,73.08
2022-12-03T06:32:53.243Z,72.78
2022-12-03T06:35:19.891Z,72.82
2022-12-03T06:37:48.953Z,73.51
2022-12-03T06:40:16.911Z,73.07
2022-12-03T06:42:43.789Z,73.07
2022-12-03T06:45:11.848Z,73.27
2022-12-03T06:47:38.880Z,73.00
2022-12-03T06:50:07.566Z,73.24
2022-12-03T06:52:35.071Z,73.85
2022-12-03T06:55:01.953Z,73.00
2022-12-03T06:57:28.686Z,72.59
2022-12-03T06:59:55.786Z,73.06
2022-12-03T07:02:25.371Z,72.77
2022-12-03T07:04:52.124Z,73.65
2022-12-03T07:07:21.926Z,73.94
2022-12-03T07:09:48.633Z,73.66
2022-12-03T07:12:15.338Z,72.93
2022-12-03T07:14:42.127Z,73.16
2022-12-03T07:17:08.794Z,73.44
2022-12-03T07:19:35.695Z,73.50
2022-12-03T07:22:02.988Z,73.50
2022-12-03T07:24:29.849Z,73.21
2022-12-03T07:26:56.594Z,72.88
2022-12-03T07:29:23.368Z,73.59
2022-12-03T07:31:50.290Z,73.39
2022-12-03T07:34:17.131Z,73.12
2022-12-03T07:36:44.013Z,72.93
2022-12-03T07:39:11.396Z,73.71
2022-12-03T07:41:38.059Z,73.76
2022-12-03T07:44:09.272Z,72.94
2022-12-03T07:46:41.717Z,73.15
2022-12-03T07:49:08.564Z,73.39
2022-12-03T07:51:35.310Z,73.47
2022-12-03T07:54:01.924Z,73.35
2022-12-03T07:56:29.287Z,73.04
2022-12-03T07:58:56.249Z,73.28
2022-12-03T08:01:23.135Z,72.76
2022-12-03T08:03:49.907Z,72.59
2022-12-03T08:06:16.636Z,72.30
2022-12-03T08:08:43.803Z,72.63
2022-12-03T08:11:14.949Z,73.07
2022-12-03T08:13:41.708Z,72.44
2022-12-03T08:16:21.660Z,72.74
2022-12-03T08:18:50.134Z,71.95
2022-12-03T08:21:19.574Z,72.46
2022-12-03T08:23:46.478Z,72.04
2022-12-03T08:26:23.708Z,72.15
2022-12-03T08:28:51.478Z,71.00
2022-12-03T08:31:32.299Z,71.27
2022-12-03T08:34:15.472Z,70.50
2022-12-03T08:36:42.481Z,71.08
2022-12-03T08:39:22.484Z,70.24
2022-12-03T08:42:14.005Z,70.21
2022-12-03T08:44:41.435Z,70.34
2022-12-03T08:47:13.061Z,70.25
2022-12-03T08:49:40.620Z,69.62
2022-12-03T08:52:17.174Z,69.65
2022-12-03T08:54:54.180Z,69.03
2022-12-03T08:57:34.532Z,69.92
2022-12-03T09:00:19.563Z,68.96
2022-12-03T09:02:49.312Z,69.00
2022-12-03T09:05:20.637Z,69.38
2022-12-03T09:07:47.508Z,69.49
2022-12-03T09:10:14.982Z,69.54
2022-12-03T09:12:41.662Z,68.93
2022-12-03T09:15:08.657Z,68.50
2022-12-03T09:17:35.558Z,68.31
2022-12-03T09:20:02.210Z,67.69
2022-12-03T09:22:29.113Z,67.96
2022-12-03T09:24:56.003Z,67.83
2022-12-03T09:27:23.417Z,67.97
2022-12-03T09:29:50.990Z,66.74
2022-12-03T09:32:18.734Z,67.41
2022-12-03T09:34:45.618Z,66.68
2022-12-03T09:37:12.403Z,67.17
2022-12-03T09:39:39.169Z,66.49
2022-12-03T09:42:06.192Z,66.73
2022-12-03T09:44:34.459Z,66.75
2022-12-03T09:47:03.201Z,65.86
2022-12-03T09:49:31.893Z,65.46
2022-12-03T09:52:01.856Z,66.50
2022-12-03T09:54:29.837Z,66.06
2022-12-03T09:56:59.364Z,66.03
2022-12-03T09:59:31.596Z,66.29
2022-12-03T10:01:59.343Z,66.79
2022-12-03T10:04:28.160Z,66.58
2022-12-03T10:06:57.267Z,66.59
2022-12-03T10:09:26.536Z,66.58
2022-12-03T10:11:54.544Z,67.31
2022-12-03T10:14:21.476Z,67.50
2022-12-03T10:16:48.866Z,67.43
2022-12-03T10:19:29.338Z,66.67
2022-12-03T10:21:56.023Z,67.20
2022-12-03T10:24:28.597Z,66.69
2022-12-03T10:27:00.711Z,65.86
2022-12-03T10:29:34.064Z,65.37
2022-12-03T10:32:10.377Z,66.07
2022-12-03T10:34:40.132Z,65.34
2022-12-03T10:37:18.847Z,65.69
2022-12-03T10:39:56.302Z,65.60
2022-12-03T10:42:24.489Z,66.56
2022-12-03T10:45:09.346Z,66.50
2022-12-03T10:47:36.311Z,67.24
2022-12-03T10:50:06.168Z,66.64
2022-12-03T10:52:33.167Z,67.27
2022-12-03T10:54:59.939Z,66.21
2022-12-03T10:57:26.749Z,66.22
2022-12-03T10:59:53.553Z,66.29
2022-12-03T11:02:23.322Z,66.58
2022-12-03T11:04:51.755Z,66.92
2022-12-03T11:07:21.452Z,66.25
2022-12-03T11:09:51.287Z,66.38
2022-12-03T11:12:23.732Z,66.44
2022-12-03T11:14:50.931Z,66.49
2022-12-03T11:17:25.033Z,66.82
2022-12-03T11:19:52.412Z,67.32
2022-12-03T11:22:39.542Z,67.01
2022-12-03T11:25:24.844Z,66.77
2022-12-03T11:28:10.159Z,66.73
2022-12-03T11:30:48.927Z,66.56
2022-12-03T11:33:35.878Z,66.92
2022-12-03T11:36:02.530Z,66.87
2022-12-03T11:38:38.376Z,66.92
2022-12-03T11:41:23.631Z,66.73
2022-12-03T11:43:53.216Z,66.99
2022-12-03T11:46:23.192Z,67.13
2022-12-03T11:48:52.743Z,66.44
2022-12-03T11:51:22.996Z,66.40
2022-12-03T11:53:53.467Z,66.71
2022-12-03T11:56:23.643Z,66.98
2022-12-03T11:58:59.661Z,67.17
2022-12-03T12:01:39.229Z,67.28
2022-12-03T12:04:08.409Z,66.78
2022-12-03T12:06:43.854Z,67.02
2022-12-03T12:09:10.859Z,66.99
2022-12-03T12:11:41.502Z,67.59
2022-12-03T12:14:10.322Z,67.86
2022-12-03T12:16:52.156Z,68.58
2022-12-03T12:19:33.930Z,68.53
2022-12-03T12:22:28.414Z,68.30
2022-12-03T12:24:56.543Z,68.30
2022-12-03T12:27:33.990Z,68.74
2022-12-03T12:30:03.662Z,68.95
2022-12-03T12:32:38.664Z,69.13
2022-12-03T12:35:29.355Z,68.95
2022-12-03T12:38:02.817Z,68.79
2022-12-03T12:40:32.364Z,69.14
2022-12-03T12:43:24.812Z,69.27
2022-12-03T12:45:58.765Z,69.53
2022-12-03T12:48:31.117Z,69.85
2022-12-03T12:50:59.627Z,69.57
2022-12-03T12:53:32.146Z,70.22
2022-12-03T12:56:14.485Z,69.78
2022-12-03T12:58:42.917Z,70.28
2022-12-03T13:01:21.061Z,69.82
2022-12-03T13:03:51.919Z,69.71
2022-12-03T13:06:25.483Z,70.13
2022-12-03T13:08:53.099Z,70.22
2022-12-03T13:11:35.339Z,70.58
2022-12-03T13:14:21.052Z,70.38
2022-12-03T13:16:49.361Z,71.18
2022-12-03T13:19:24.222Z,71.20
2022-12-03T13:21:53.459Z,70.98
2022-12-03T13:24:38.406Z,71.15
2022-12-03T13:27:31.849Z,71.20
2022-12-03T13:30:08.755Z,71.29
2022-12-03T13:32:38.881Z,71.45
2022-12-03T13:35:07.459Z,71.34
2022-12-03T13:37:34.248Z,71.65
2022-12-03T13:40:12.059Z,71.50
2022-12-03T13:42:38.931Z,72.09
2022-12-03T13:45:14.683Z,72.07
2022-12-03T13:47:49.647Z,72.07
2022-12-03T13:50:36.479Z,72.35
2022-12-03T13:53:15.691Z,72.19
2022-12-03T13:55:48.159Z,71.74
2022-12-03T13:58:14.972Z,71.70
2022-12-03T14:00:41.843Z,72.19
2022-12-03T14:03:08.936Z,72.59
2022-12-03T14:05:35.794Z,72.00
2022-12-03T14:08:02.797Z,72.53
2022-12-03T14:10:29.904Z,72.27
2022-12-03T14:12:57.219Z,72.40
2022-12-03T14:15:26.176Z,73.20
2022-12-03T14:17:53.035Z,72.42
2022-12-03T14:20:20.063Z,72.96
2022-12-03T14:22:46.810Z,72.66
2022-12-03T14:25:15.088Z,72.62
2022-12-03T14:27:41.859Z,72.34
2022-12-03T14:30:09.482Z,71.92
2022-12-03T14:32:36.473Z,72.73
2022-12-03T14:35:09.528Z,72.29
2022-12-03T14:37:36.797Z,72.51
2022-12-03T14:40:03.926Z,72.55
2022-12-03T14:42:30.636Z,72.47
2022-12-03T14:44:57.591Z,72.82
2022-12-03T14:47:24.348Z,72.70
2022-12-03T14:49:52.293Z,73.05
2022-12-03T14:52:20.092Z,73.12
2022-12-03T14:54:46.913Z,73.13
2022-12-03T14:57:15.306Z,72.48
2022-12-03T14:59:43.607Z,72.93
2022-12-03T15:02:11.665Z,73.02
2022-12-03T15:04:39.555Z,73.29
2022-12-03T15:07:06.813Z,73.27
2022-12-03T15:09:33.788Z,73.53
2022-12-03T15:12:02.853Z,73.68
2022-12-03T15:14:29.632Z,73.51
2022-12-03T15:16:56.388Z,73.27
2022-12-03T15:19:23.084Z,73.81
2022-12-03T15:21:49.751Z,73.85
2022-12-03T15:24:17.098Z,73.76
2022-12-03T15:26:43.879Z,73.91
2022-12-03T15:29:12.856Z,74.22
2022-12-03T15:31:39.614Z,74.33
2022-12-03T15:34:06.370Z,74.57
2022-12-03T15:36:33.095Z,75.05
2022-12-03T15:38:59.895Z,75.13
2022-12-03T15:41:29.673Z,75.22
2022-12-03T15:43:59.097Z,75.03
2022-12-03T15:46:28.068Z,75.46
2022-12-03T15:48:55.527Z,75.27
2022-12-03T15:51:22.232Z,75.15
2022-12-03T15:53:49.132Z,75.49
2022-12-03T15:56:16.304Z,75.89
2022-12-03T15:58:42.977Z,75.80
2022-12-03T16:01:09.887Z,75.86
2022-12-03T16:03:37.097Z,75.59
2022-12-03T16:06:03.963Z,75.91
2022-12-03T16:08:30.769Z,75.93
2022-12-03T16:10:57.641Z,76.34
2022-12-03T16:13:24.335Z,76.07
2022-12-03T16:15:51.180Z,75.37
2022-12-03T16:18:17.918Z,75.68
2022-12-03T16:20:44.561Z,75.15
2022-12-03T16:23:11.385Z,75.45
2022-12-03T16:25:38.211Z,75.73
2022-12-03T16:28:06.216Z,75.84
2022-12-03T16:30:32.998Z,75.32
2022-12-03T16:32:59.722Z,75.61
2022-12-03T16:35:26.483Z,75.83
2022-12-03T16:37:53.222Z,75.69
2022-12-03T16:40:19.917Z,76.05
2022-12-03T16:42:46.672Z,75.67
2022-12-03T16:45:33.337Z,76.31
2022-12-03T16:48:01.628Z,75.82
2022-12-03T16:50:30.336Z,76.10
2022-12-03T16:52:57.814Z,76.17
2022-12-03T16:55:25.329Z,75.95
2022-12-03T16:57:52.105Z,76.47
2022-12-03T17:00:21.648Z,76.49
2022-12-03T17:02:48.837Z,76.62
2022-12-03T17:05:15.808Z,76.43
2022-12-03T17:07:42.559Z,76.28
2022-12-03T17:10:09.923Z,76.39
2022-12-03T17:13:07.099Z,76.89
2022-12-03T17:15:24.529Z,76.64
2022-12-03T17:17:53.163Z,76.54
2022-12-03T17:20:20.327Z,76.81
2022-12-03T17:22:47.019Z,76.61
2022-12-03T17:25:13.969Z,76.80
2022-12-03T17:27:45.068Z,77.08
2022-12-03T17:30:13.282Z,76.76
2022-12-03T17:32:40.657Z,76.85
2022-12-03T17:35:08.105Z,77.32
2022-12-03T17:37:37.308Z,77.08
2022-12-03T17:40:09.178Z,77.11
2022-12-03T17:42:36.068Z,76.94
2022-12-03T17:45:03.203Z,76.98
2022-12-03T17:47:30.249Z,77.75
2022-12-03T17:49:57.535Z,77.93
2022-12-03T17:52:24.413Z,78.04
2022-12-03T17:57:37.899Z,77.84
2022-12-03T18:00:06.598Z,78.26
2022-12-03T18:02:38.932Z,78.21
2022-12-03T18:05:06.172Z,78.05
2022-12-03T18:07:32.903Z,78.02
2022-12-03T18:09:59.727Z,78.38
2022-12-03T18:12:26.443Z,78.35
2022-12-03T18:14:53.163Z,78.57
2022-12-03T18:17:19.911Z,78.69
2022-12-03T18:19:46.712Z,78.48
2022-12-03T18:22:14.230Z,78.82
2022-12-03T18:24:45.033Z,78.73
2022-12-03T18:27:13.160Z,78.38
2022-12-03T18:29:39.849Z,79.19
2022-12-03T18:32:27.073Z,79.39
2022-12-03T18:34:56.777Z,78.61
2022-12-03T18:37:27.063Z,79.71
2022-12-03T18:39:54.570Z,79.89
2022-12-03T18:42:23.463Z,79.73
2022-12-03T18:44:53.547Z,79.81
2022-12-03T18:47:22.804Z,79.63
2022-12-03T18:49:50.076Z,80.25
2022-12-03T18:52:20.590Z,80.50
2022-12-03T18:54:47.614Z,80.22
2022-12-03T18:57:14.957Z,80.31
2022-12-03T18:59:41.992Z,80.41
2022-12-03T19:02:38.500Z,79.96
2022-12-03T19:05:07.105Z,79.93
2022-12-03T19:07:33.911Z,79.69
2022-12-03T19:10:00.724Z,79.61
2022-12-03T19:12:27.648Z,79.77
2022-12-03T19:14:54.429Z,79.82
2022-12-03T19:17:21.619Z,80.13
2022-12-03T19:19:48.745Z,79.86
2022-12-03T19:22:15.667Z,79.79
2022-12-03T19:24:42.396Z,79.55
2022-12-03T19:27:10.657Z,79.68
2022-12-03T19:29:37.393Z,79.82
2022-12-03T19:32:04.673Z,79.77
2022-12-03T19:34:31.488Z,79.94
2022-12-03T19:36:59.548Z,80.09
2022-12-03T19:39:26.276Z,79.89
2022-12-03T19:41:53.002Z,80.05
2022-12-03T19:44:19.883Z,79.18
2022-12-03T19:46:49.201Z,79.90
2022-12-03T19:49:21.225Z,79.19
2022-12-03T19:51:48.273Z,79.80
2022-12-03T19:54:15.335Z,79.59
2022-12-03T19:56:42.991Z,79.53
2022-12-03T19:59:12.202Z,79.56
2022-12-03T20:01:40.730Z,79.76
2022-12-03T20:04:08.543Z,79.52
2022-12-03T20:06:38.984Z,79.60
2022-12-03T20:09:07.648Z,80.16
2022-12-03T20:11:35.387Z,78.88
2022-12-03T20:14:06.195Z,79.31
2022-12-03T20:16:33.345Z,79.45
2022-12-03T20:19:05.095Z,79.79
2022-12-03T20:21:36.444Z,80.07
2022-12-03T20:24:04.298Z,79.86
2022-12-03T20:26:31.526Z,79.70
2022-12-03T20:28:58.279Z,79.71
2022-12-03T20:31:28.189Z,80.08
2022-12-03T20:33:58.637Z,79.53
2022-12-03T20:36:25.867Z,78.90
2022-12-03T20:39:01.328Z,79.31
2022-12-03T20:41:29.215Z,79.86
2022-12-03T20:43:55.939Z,79.96
2022-12-03T20:46:25.908Z,80.15
2022-12-03T20:48:54.137Z,80.01
2022-12-03T20:51:23.746Z,79.84
2022-12-03T20:53:50.617Z,79.94
2022-12-03T20:56:23.235Z,79.92
2022-12-03T20:58:50.388Z,80.22
2022-12-03T21:01:27.862Z,80.28
2022-12-03T21:03:56.478Z,80.27
2022-12-03T21:06:25.855Z,80.31
2022-12-03T21:08:54.494Z,79.65
2022-12-03T21:11:26.464Z,79.73
2022-12-03T21:13:54.441Z,79.32
2022-12-03T21:16:45.427Z,79.96
2022-12-03T21:19:11.273Z,79.93
2022-12-03T21:21:37.945Z,80.01
2022-12-03T21:24:04.827Z,80.26
2022-12-03T21:26:31.531Z,79.89
2022-12-03T21:28:58.204Z,79.73
2022-12-03T21:31:26.604Z,80.03
2022-12-03T21:33:54.709Z,79.89
2022-12-03T21:36:21.599Z,80.11
2022-12-03T21:38:48.567Z,80.65
2022-12-03T21:41:19.310Z,79.65
2022-12-03T21:43:45.963Z,80.28
2022-12-03T21:47:09.745Z,80.10
2022-12-03T21:49:01.838Z,80.16
2022-12-03T21:51:28.503Z,80.35
2022-12-03T21:53:55.080Z,80.61
2022-12-03T21:56:21.799Z,80.09
2022-12-03T21:58:48.500Z,80.39
2022-12-03T22:01:18.594Z,80.45
2022-12-03T22:03:46.033Z,80.61
2022-12-03T22:06:13.237Z,80.38
2022-12-03T22:08:40.467Z,79.93
2022-12-03T22:11:13.317Z,80.76
2022-12-03T22:13:41.033Z,80.80
2022-12-03T22:16:13.315Z,80.82
2022-12-03T22:18:40.832Z,80.54
2022-12-03T22:21:09.976Z,80.76
2022-12-03T22:23:37.110Z,80.53
2022-12-03T22:26:06.504Z,81.10
2022-12-03T22:28:34.541Z,81.00
2022-12-03T22:31:06.069Z,81.44
2022-12-03T22:33:32.935Z,81.51
2022-12-03T22:36:02.357Z,81.03
2022-12-03T22:38:30.122Z,81.22
2022-12-03T22:40:56.876Z,81.09
2022-12-03T22:43:24.712Z,81.60
2022-12-03T22:45:55.562Z,81.10
2022-12-03T22:48:23.734Z,80.94
2022-12-03T22:50:51.943Z,80.99
2022-12-03T22:53:19.380Z,80.95
2022-12-03T22:55:54.438Z,80.43
2022-12-03T22:58:21.579Z,81.11
2022-12-03T23:00:48.302Z,81.17
2022-12-03T23:03:14.962Z,81.59
2022-12-03T23:05:41.711Z,81.48
2022-12-03T23:08:11.338Z,81.35
2022-12-03T23:10:40.809Z,80.82
2022-12-03T23:13:08.607Z,80.63
2022-12-03T23:15:36.272Z,80.97
2022-12-03T23:18:02.900Z,81.01
2022-12-03T23:20:30.036Z,81.17
2022-12-03T23:22:56.726Z,81.56
2022-12-03T23:25:23.385Z,81.54
2022-12-03T23:27:50.207Z,81.00
2022-12-03T23:30:17.053Z,81.04
2022-12-03T23:32:47.069Z,81.20
2022-12-03T23:35:13.697Z,80.87
2022-12-03T23:37:43.526Z,80.75
2022-12-03T23:40:11.290Z,81.37
2022-12-03T23:42:38.221Z,81.31
2022-12-03T23:45:05.407Z,80.76
2022-12-03T23:47:32.082Z,81.14
2022-12-03T23:49:58.696Z,80.36
2022-12-03T23:52:25.342Z,80.98
2022-12-03T23:54:52.011Z,81.12
2022-12-03T23:57:18.680Z,81.25
2022-12-03T23:59:45.380Z,81.89
